Time;durP1;ratioP1;P1;durP2;ratioP2;P2;SDS_P1;SDS_P2;PMS_P1;PMS_P2;Temp;Humidity;BMP_temperature;BMP_pressure;BME280_temperature;BME280_humidity;BME280_pressure;Samples;Min_cycle;Max_cycle;Signal;HPM_P1;HPM_P2
2022/09/08 00:00:06;;;;;;;23.13;20.73;;;;;;;;;;5040970;28;20041;-69
2022/09/08 00:02:34;;;;;;;23.45;20.05;;;;;;;;;;5033506;28;20499;-69
2022/09/08 00:05:00;;;;;;;22.92;19.92;;;;;;;;;;5033264;28;20401;-70
2022/09/08 00:07:28;;;;;;;24.27;21.77;;;;;;;;;;5043577;28;20056;-69
2022/09/08 00:09:54;;;;;;;22.83;20.38;;;;;;;;;;5040501;28;20920;-70
2022/09/08 00:12:21;;;;;;;23.77;21.27;;;;;;;;;;5042817;28;20045;-71
2022/09/08 00:14:47;;;;;;;24.67;21.92;;;;;;;;;;5035193;28;20113;-70
2022/09/08 00:17:14;;;;;;;23.65;21.15;;;;;;;;;;5037662;28;20152;-70
2022/09/08 00:19:40;;;;;;;22.77;20.38;;;;;;;;;;5035061;28;20088;-70
2022/09/08 00:22:06;;;;;;;21.88;19.50;;;;;;;;;;5042634;28;20187;-70
2022/09/08 00:24:33;;;;;;;22.48;19.95;;;;;;;;;;5034024;28;20567;-70
2022/09/08 00:26:59;;;;;;;21.85;19.63;;;;;;;;;;5036456;28;20148;-70
2022/09/08 00:29:26;;;;;;;23.90;20.98;;;;;;;;;;5038905;28;20083;-69
2022/09/08 00:31:52;;;;;;;23.13;20.63;;;;;;;;;;5038163;28;20049;-69
2022/09/08 00:34:18;;;;;;;21.88;19.58;;;;;;;;;;5035887;28;20049;-70
2022/09/08 00:36:44;;;;;;;23.00;20.45;;;;;;;;;;5038626;28;20067;-70
2022/09/08 00:39:10;;;;;;;22.98;20.42;;;;;;;;;;5032695;28;20056;-70
2022/09/08 00:41:36;;;;;;;23.85;19.70;;;;;;;;;;5030687;28;20041;-70
2022/09/08 00:44:23;;;;;;;25.50;19.13;;;;;;;;;;5031309;28;20137;-70
2022/09/08 00:46:50;;;;;;;20.48;18.33;;;;;;;;;;5035178;28;20093;-69
2022/09/08 00:49:18;;;;;;;21.90;18.15;;;;;;;;;;5031138;28;20393;-70
2022/09/08 00:51:48;;;;;;;20.65;18.55;;;;;;;;;;5035332;28;20048;-70
2022/09/08 00:54:15;;;;;;;24.02;18.20;;;;;;;;;;5035005;28;20044;-69
2022/09/08 00:56:42;;;;;;;22.00;18.42;;;;;;;;;;5033416;28;20049;-69
2022/09/08 00:59:09;;;;;;;21.17;18.38;;;;;;;;;;5032748;28;20051;-69
2022/09/08 01:01:36;;;;;;;23.55;19.27;;;;;;;;;;5049869;28;20045;-70
2022/09/08 01:04:04;;;;;;;23.15;18.80;;;;;;;;;;5034701;28;20045;-69
2022/09/08 01:15:01;;;;;;;22.33;18.45;;;;;;;;;;5036981;28;20096;-69
2022/09/08 01:17:29;;;;;;;21.50;18.50;;;;;;;;;;5039744;28;20033;-69
2022/09/08 01:19:56;;;;;;;20.52;18.40;;;;;;;;;;5040881;28;20052;-70
2022/09/08 01:22:39;;;;;;;19.90;17.80;;;;;;;;;;5040218;28;20064;-69
2022/09/08 01:25:26;;;;;;;20.50;18.23;;;;;;;;;;5034884;28;20095;-70
2022/09/08 01:27:55;;;;;;;20.13;17.88;;;;;;;;;;5038275;28;20056;-69
2022/09/08 01:30:22;;;;;;;21.45;18.65;;;;;;;;;;5034665;28;20045;-70
2022/09/08 01:32:48;;;;;;;21.23;18.05;;;;;;;;;;5035994;28;20152;-69
2022/09/08 01:35:28;;;;;;;21.63;18.48;;;;;;;;;;5034603;28;20404;-69
2022/09/08 01:37:54;;;;;;;25.25;20.02;;;;;;;;;;5037643;28;20535;-69
2022/09/08 01:40:20;;;;;;;22.58;19.40;;;;;;;;;;5041165;28;20071;-70
2022/09/08 01:42:46;;;;;;;22.05;19.35;;;;;;;;;;5036282;28;20094;-70
2022/09/08 01:45:13;;;;;;;22.92;19.98;;;;;;;;;;5043067;28;20044;-69
2022/09/08 01:47:39;;;;;;;22.45;19.45;;;;;;;;;;5044280;28;20041;-70
2022/09/08 01:50:06;;;;;;;26.85;20.20;;;;;;;;;;5037989;28;20179;-70
2022/09/08 01:52:32;;;;;;;24.73;19.52;;;;;;;;;;5038761;28;20041;-70
2022/09/08 01:54:58;;;;;;;22.48;19.38;;;;;;;;;;5069810;28;20487;-69
2022/09/08 01:57:24;;;;;;;22.92;19.17;;;;;;;;;;5038632;28;20533;-69
2022/09/08 01:59:50;;;;;;;22.10;19.75;;;;;;;;;;5038814;28;20048;-69
2022/09/08 02:02:16;;;;;;;20.95;18.77;;;;;;;;;;5037314;28;20049;-69
2022/09/08 02:04:43;;;;;;;22.55;18.77;;;;;;;;;;5036501;28;20045;-69
2022/09/08 02:07:10;;;;;;;23.60;19.88;;;;;;;;;;5037957;28;20565;-70
2022/09/08 02:09:36;;;;;;;22.80;20.20;;;;;;;;;;5034626;28;20037;-70
2022/09/08 02:12:04;;;;;;;22.27;19.77;;;;;;;;;;5039930;28;21000;-69
2022/09/08 02:14:30;;;;;;;23.60;20.70;;;;;;;;;;5039436;28;20048;-70
2022/09/08 02:16:56;;;;;;;23.27;20.77;;;;;;;;;;5035684;28;20055;-70
2022/09/08 02:19:22;;;;;;;23.50;19.73;;;;;;;;;;5036107;28;20047;-70
2022/09/08 02:21:49;;;;;;;24.25;21.17;;;;;;;;;;5037580;28;20052;-69
2022/09/08 02:24:15;;;;;;;25.08;20.65;;;;;;;;;;5038671;28;20079;-69
2022/09/08 02:26:41;;;;;;;25.60;22.10;;;;;;;;;;5039012;28;20053;-69
2022/09/08 02:29:09;;;;;;;28.58;22.13;;;;;;;;;;5031992;28;20079;-70
2022/09/08 02:31:36;;;;;;;27.27;24.38;;;;;;;;;;5036202;28;20041;-69
2022/09/08 02:34:03;;;;;;;28.42;23.70;;;;;;;;;;5037546;28;20044;-69
2022/09/08 02:36:29;;;;;;;28.35;23.80;;;;;;;;;;5032708;28;20118;-69
2022/09/08 02:38:55;;;;;;;28.02;24.95;;;;;;;;;;5045904;28;20049;-70
2022/09/08 02:41:22;;;;;;;28.45;24.83;;;;;;;;;;5038679;28;20481;-69
2022/09/08 02:43:48;;;;;;;29.52;26.42;;;;;;;;;;5033637;28;20053;-71
2022/09/08 02:46:15;;;;;;;28.58;25.13;;;;;;;;;;5033749;28;20182;-69
2022/09/08 02:48:41;;;;;;;32.22;27.52;;;;;;;;;;5032894;28;20056;-70
2022/09/08 02:51:08;;;;;;;33.55;28.00;;;;;;;;;;5036611;28;20055;-70
2022/09/08 02:53:35;;;;;;;33.33;29.30;;;;;;;;;;5037827;28;20059;-69
2022/09/08 02:56:01;;;;;;;31.67;28.17;;;;;;;;;;5038308;28;20064;-69
2022/09/08 02:58:28;;;;;;;33.75;29.83;;;;;;;;;;5038941;28;20436;-69
2022/09/08 03:00:54;;;;;;;34.65;29.88;;;;;;;;;;5033548;28;20037;-70
2022/09/08 03:03:22;;;;;;;34.85;29.75;;;;;;;;;;5035989;28;20049;-69
2022/09/08 03:05:48;;;;;;;33.67;29.58;;;;;;;;;;5034357;28;20057;-69
2022/09/08 03:08:15;;;;;;;36.78;30.90;;;;;;;;;;5038143;28;20507;-70
2022/09/08 03:10:41;;;;;;;35.97;32.00;;;;;;;;;;5040531;28;20041;-70
2022/09/08 03:13:08;;;;;;;37.28;32.92;;;;;;;;;;5043505;28;20041;-69
2022/09/08 03:15:34;;;;;;;36.10;32.30;;;;;;;;;;5039622;28;20132;-70
2022/09/08 03:18:04;;;;;;;35.97;32.33;;;;;;;;;;5035763;28;20045;-70
2022/09/08 03:20:31;;;;;;;36.10;32.28;;;;;;;;;;5038993;28;20580;-70
2022/09/08 03:22:58;;;;;;;35.10;31.40;;;;;;;;;;5039129;28;20147;-69
2022/09/08 03:25:24;;;;;;;38.15;32.20;;;;;;;;;;5038999;28;20525;-70
2022/09/08 03:27:51;;;;;;;36.67;32.85;;;;;;;;;;5044060;28;20036;-69
2022/09/08 03:30:17;;;;;;;46.22;34.63;;;;;;;;;;5040549;28;20448;-70
2022/09/08 03:32:44;;;;;;;38.05;33.90;;;;;;;;;;5067869;28;20041;-70
2022/09/08 03:35:11;;;;;;;38.33;34.25;;;;;;;;;;5032707;28;20055;-70
2022/09/08 03:37:39;;;;;;;37.63;33.67;;;;;;;;;;5034183;28;20041;-69
2022/09/08 03:40:06;;;;;;;40.00;34.67;;;;;;;;;;5038930;28;20102;-70
2022/09/08 03:42:34;;;;;;;38.05;34.30;;;;;;;;;;5047201;28;20044;-70
2022/09/08 03:45:01;;;;;;;38.92;34.03;;;;;;;;;;5041801;28;20041;-70
2022/09/08 03:47:27;;;;;;;40.58;34.78;;;;;;;;;;5036068;28;20056;-69
2022/09/08 03:49:53;;;;;;;39.97;33.63;;;;;;;;;;5035889;28;20055;-70
2022/09/08 03:52:19;;;;;;;38.90;34.85;;;;;;;;;;5028078;28;20041;-69
2022/09/08 03:54:51;;;;;;;40.42;36.10;;;;;;;;;;5029189;28;20106;-70
2022/09/08 03:57:19;;;;;;;40.10;35.88;;;;;;;;;;5047244;28;20037;-70
2022/09/08 03:59:45;;;;;;;38.88;34.60;;;;;;;;;;5048869;28;20052;-69
2022/09/08 04:02:11;;;;;;;39.97;35.75;;;;;;;;;;5034143;28;20158;-70
2022/09/08 04:04:37;;;;;;;42.40;34.25;;;;;;;;;;5046344;28;20401;-69
2022/09/08 04:07:03;;;;;;;36.45;32.65;;;;;;;;;;5031570;28;20120;-70
2022/09/08 04:09:30;;;;;;;37.05;33.05;;;;;;;;;;5034011;28;20052;-70
2022/09/08 04:11:56;;;;;;;37.42;33.42;;;;;;;;;;5037040;28;20045;-69
2022/09/08 04:14:22;;;;;;;36.67;32.97;;;;;;;;;;5044451;28;20045;-69
2022/09/08 04:16:48;;;;;;;44.28;34.70;;;;;;;;;;5037401;28;20083;-69
2022/09/08 04:19:15;;;;;;;40.45;36.30;;;;;;;;;;5037061;28;20040;-69
2022/09/08 04:21:41;;;;;;;40.58;36.28;;;;;;;;;;5035001;28;20135;-69
2022/09/08 04:24:07;;;;;;;41.83;37.17;;;;;;;;;;5039034;28;20530;-70
2022/09/08 04:26:33;;;;;;;42.22;37.92;;;;;;;;;;5039788;28;20033;-70
2022/09/08 04:29:01;;;;;;;40.63;36.47;;;;;;;;;;5039575;28;20053;-69
2022/09/08 04:31:27;;;;;;;46.20;39.03;;;;;;;;;;5043611;28;20048;-69
2022/09/08 04:33:53;;;;;;;44.05;39.53;;;;;;;;;;5035405;28;20136;-67
2022/09/08 04:36:20;;;;;;;44.25;39.53;;;;;;;;;;5041078;28;20064;-67
2022/09/08 04:38:47;;;;;;;43.63;39.10;;;;;;;;;;5035723;28;20513;-67
2022/09/08 04:41:15;;;;;;;44.30;39.60;;;;;;;;;;5032446;28;20048;-67
2022/09/08 04:43:41;;;;;;;46.08;41.25;;;;;;;;;;5041670;28;20056;-67
2022/09/08 04:46:09;;;;;;;48.65;43.60;;;;;;;;;;5043752;28;20043;-68
2022/09/08 04:48:36;;;;;;;49.20;43.85;;;;;;;;;;5047265;28;20134;-68
2022/09/08 04:51:02;;;;;;;45.67;41.00;;;;;;;;;;5049070;28;20057;-71
2022/09/08 04:53:31;;;;;;;46.92;41.90;;;;;;;;;;5047669;28;20517;-69
2022/09/08 04:55:57;;;;;;;48.08;43.03;;;;;;;;;;5038264;28;20057;-69
2022/09/08 04:58:23;;;;;;;47.05;42.35;;;;;;;;;;5034778;28;21315;-69
2022/09/08 05:00:50;;;;;;;48.28;43.15;;;;;;;;;;5047195;28;20052;-69
2022/09/08 05:03:17;;;;;;;47.47;42.30;;;;;;;;;;5049507;28;20055;-69
2022/09/08 05:05:43;;;;;;;51.83;45.90;;;;;;;;;;5033884;28;20115;-69
2022/09/08 05:08:09;;;;;;;48.75;43.55;;;;;;;;;;5034880;28;20041;-70
2022/09/08 05:10:35;;;;;;;50.25;44.08;;;;;;;;;;5032956;28;20044;-69
2022/09/08 05:13:02;;;;;;;51.17;44.25;;;;;;;;;;5031237;28;20076;-69
2022/09/08 05:15:28;;;;;;;50.15;44.42;;;;;;;;;;5035212;28;20621;-75
2022/09/08 05:17:55;;;;;;;50.08;44.70;;;;;;;;;;5037518;28;20057;-71
2022/09/08 05:20:21;;;;;;;50.88;45.13;;;;;;;;;;5039063;28;20465;-71
2022/09/08 05:22:48;;;;;;;48.35;42.90;;;;;;;;;;5037596;28;21951;-71
2022/09/08 05:25:14;;;;;;;54.65;45.85;;;;;;;;;;5070686;28;20049;-71
2022/09/08 05:27:40;;;;;;;51.17;45.67;;;;;;;;;;5042965;28;20095;-70
2022/09/08 05:30:06;;;;;;;53.92;44.83;;;;;;;;;;5040478;28;20051;-70
2022/09/08 05:32:34;;;;;;;54.03;45.67;;;;;;;;;;5032172;28;20052;-70
2022/09/08 05:35:01;;;;;;;50.60;44.63;;;;;;;;;;5036695;28;21079;-69
2022/09/08 05:37:28;;;;;;;52.60;45.88;;;;;;;;;;5047269;28;20064;-70
2022/09/08 05:39:54;;;;;;;56.03;46.42;;;;;;;;;;5046351;28;20519;-70
2022/09/08 05:42:20;;;;;;;51.38;45.95;;;;;;;;;;5045420;28;20123;-70
2022/09/08 05:44:46;;;;;;;52.85;44.97;;;;;;;;;;5044155;28;20037;-70
2022/09/08 05:47:13;;;;;;;53.15;46.58;;;;;;;;;;5043596;28;20041;-70
2022/09/08 05:49:39;;;;;;;52.63;46.90;;;;;;;;;;5059789;28;20131;-69
2022/09/08 05:52:05;;;;;;;58.88;48.53;;;;;;;;;;5044119;28;20072;-70
2022/09/08 05:54:31;;;;;;;58.75;48.53;;;;;;;;;;5049364;28;20052;-70
2022/09/08 05:56:58;;;;;;;60.05;47.95;;;;;;;;;;5056705;28;20047;-70
2022/09/08 05:59:24;;;;;;;57.13;47.63;;;;;;;;;;5057278;28;20064;-70
2022/09/08 06:01:50;;;;;;;60.95;49.42;;;;;;;;;;5054345;28;20037;-70
2022/09/08 06:04:16;;;;;;;54.80;46.97;;;;;;;;;;5055995;28;20048;-69
2022/09/08 06:06:42;;;;;;;63.83;50.25;;;;;;;;;;5059353;28;20103;-69
2022/09/08 06:09:09;;;;;;;59.35;49.53;;;;;;;;;;5058509;28;20040;-69
2022/09/08 06:11:35;;;;;;;55.67;48.53;;;;;;;;;;5064197;28;20047;-70
2022/09/08 06:14:02;;;;;;;51.38;45.15;;;;;;;;;;5063565;28;20108;-69
2022/09/08 06:16:29;;;;;;;56.47;47.67;;;;;;;;;;5059977;28;20045;-70
2022/09/08 06:18:57;;;;;;;50.45;43.50;;;;;;;;;;5062170;28;20037;-70
2022/09/08 06:21:24;;;;;;;53.03;45.13;;;;;;;;;;5065981;28;20047;-70
2022/09/08 06:23:52;;;;;;;53.72;47.88;;;;;;;;;;5064003;28;20116;-70
2022/09/08 06:26:28;;;;;;;60.33;50.50;;;;;;;;;;5060805;28;20052;-70
2022/09/08 06:28:59;;;;;;;61.85;49.67;;;;;;;;;;5064222;28;20514;-70
2022/09/08 06:31:29;;;;;;;65.38;51.20;;;;;;;;;;5064044;28;20044;-71
2022/09/08 06:33:57;;;;;;;60.08;50.42;;;;;;;;;;5064405;28;20127;-72
2022/09/08 06:36:26;;;;;;;62.08;50.63;;;;;;;;;;5055564;28;20119;-71
2022/09/08 06:39:01;;;;;;;63.03;51.83;;;;;;;;;;5063357;28;20131;-71
2022/09/08 06:41:29;;;;;;;63.78;51.58;;;;;;;;;;5082448;28;20051;-69
2022/09/08 06:43:59;;;;;;;60.92;50.45;;;;;;;;;;5057064;28;20299;-69
2022/09/08 06:46:27;;;;;;;56.35;50.03;;;;;;;;;;5059640;28;20049;-70
2022/09/08 06:48:53;;;;;;;57.47;47.28;;;;;;;;;;5057482;28;20040;-69
2022/09/08 06:51:38;;;;;;;61.72;48.90;;;;;;;;;;5072377;28;20037;-69
2022/09/08 06:54:10;;;;;;;62.40;47.60;;;;;;;;;;5056472;28;20549;-69
2022/09/08 06:56:40;;;;;;;64.93;49.70;;;;;;;;;;5059267;28;20127;-69
2022/09/08 06:59:15;;;;;;;66.65;51.85;;;;;;;;;;5063262;28;20487;-69
2022/09/08 07:01:48;;;;;;;66.10;51.65;;;;;;;;;;5060048;28;20041;-69
2022/09/08 07:04:22;;;;;;;78.47;56.45;;;;;;;;;;5052938;28;20041;-69
2022/09/08 07:06:48;;;;;;;;;;;;;;;;;;5058031;28;20395;-69
2022/09/08 07:09:21;;;;;;;65.20;51.88;;;;;;;;;;5065058;28;19939;-69
2022/09/08 07:11:54;;;;;;;67.60;50.38;;;;;;;;;;5060183;28;20040;-69
2022/09/08 07:14:21;;;;;;;118.60;56.00;;;;;;;;;;5062392;28;20129;-69
2022/09/08 07:16:50;;;;;;;83.47;55.55;;;;;;;;;;5059204;28;20044;-66
2022/09/08 07:19:20;;;;;;;93.88;56.03;;;;;;;;;;5057000;28;20098;-66
2022/09/08 07:21:54;;;;;;;88.55;51.70;;;;;;;;;;5062409;28;20071;-66
2022/09/08 07:24:24;;;;;;;94.68;55.40;;;;;;;;;;5059109;28;20370;-65
2022/09/08 07:26:55;;;;;;;96.57;58.00;;;;;;;;;;5058688;28;20045;-66
2022/09/08 07:29:26;;;;;;;87.38;52.40;;;;;;;;;;5057057;28;20036;-66
2022/09/08 07:31:53;;;;;;;78.97;47.78;;;;;;;;;;5060785;28;20052;-66
2022/09/08 07:34:26;;;;;;;78.05;44.33;;;;;;;;;;5055047;28;20496;-65
2022/09/08 07:37:09;;;;;;;85.32;48.53;;;;;;;;;;5062605;28;20113;-66
2022/09/08 07:39:46;;;;;;;33.83;28.67;;;;;;;;;;5059954;28;20468;-66
2022/09/08 07:42:15;;;;;;;46.97;31.65;;;;;;;;;;5058448;28;20041;-67
2022/09/08 07:44:42;;;;;;;47.42;28.25;;;;;;;;;;5078440;28;20076;-66
2022/09/08 07:47:23;;;;;;;27.27;14.85;;;;;;;;;;5059249;28;20135;-66
2022/09/08 07:50:01;;;;;;;16.90;10.77;;;;;;;;;;5058210;28;20048;-67
2022/09/08 07:52:56;;;;;;;19.40;12.35;;;;;;;;;;5060294;28;20070;-66
2022/09/08 07:55:28;;;;;;;29.23;14.40;;;;;;;;;;5059947;28;20581;-67
2022/09/08 07:58:00;;;;;;;20.77;11.38;;;;;;;;;;5063509;28;20490;-66
2022/09/08 08:00:27;;;;;;;16.50;11.82;;;;;;;;;;5059682;28;20044;-66
2022/09/08 08:03:12;;;;;;;17.02;11.98;;;;;;;;;;5061886;28;20076;-67
2022/09/08 08:05:41;;;;;;;15.82;9.73;;;;;;;;;;5058884;28;20044;-66
2022/09/08 08:08:13;;;;;;;13.23;8.52;;;;;;;;;;5060373;28;20049;-66
2022/09/08 08:10:45;;;;;;;21.83;10.27;;;;;;;;;;5062187;28;20408;-66
2022/09/08 08:13:18;;;;;;;9.68;6.00;;;;;;;;;;5064527;28;20048;-66
2022/09/08 08:15:44;;;;;;;;;;;;;;;;;;5058466;28;20041;-67
2022/09/08 08:18:11;;;;;;;10.95;4.78;;;;;;;;;;5052937;28;19972;-66
2022/09/08 08:20:48;;;;;;;9.65;4.32;;;;;;;;;;5060059;28;20053;-66
2022/09/08 08:23:27;;;;;;;13.95;3.78;;;;;;;;;;5066152;28;20437;-66
2022/09/08 08:25:59;;;;;;;12.23;3.67;;;;;;;;;;5060949;28;20345;-66
2022/09/08 08:28:25;;;;;;;37.05;5.15;;;;;;;;;;5056580;28;20045;-66
2022/09/08 08:30:55;;;;;;;15.77;3.08;;;;;;;;;;5057306;28;20544;-65
2022/09/08 08:33:26;;;;;;;17.20;4.05;;;;;;;;;;5058433;28;20128;-66
2022/09/08 08:35:56;;;;;;;6.18;3.10;;;;;;;;;;5049877;28;20079;-66
2022/09/08 08:38:24;;;;;;;5.78;3.00;;;;;;;;;;5060074;28;20040;-67
2022/09/08 08:40:50;;;;;;;6.78;3.03;;;;;;;;;;5060246;28;20041;-67
2022/09/08 08:43:30;;;;;;;7.68;3.53;;;;;;;;;;5059174;28;20045;-67
2022/09/08 08:46:06;;;;;;;9.60;3.75;;;;;;;;;;5056785;28;20048;-67
2022/09/08 08:48:39;;;;;;;6.97;3.10;;;;;;;;;;5064214;28;20056;-67
2022/09/08 08:51:21;;;;;;;5.28;2.45;;;;;;;;;;5059821;28;20063;-67
2022/09/08 08:53:55;;;;;;;9.43;3.13;;;;;;;;;;5057577;28;22007;-67
2022/09/08 08:56:21;;;;;;;6.63;2.58;;;;;;;;;;5058975;28;20422;-67
2022/09/08 08:58:48;;;;;;;6.80;2.78;;;;;;;;;;5059250;28;20132;-67
2022/09/08 09:01:17;;;;;;;6.25;3.08;;;;;;;;;;5061336;28;20079;-67
2022/09/08 09:03:59;;;;;;;4.68;2.53;;;;;;;;;;5061815;28;20409;-66
2022/09/08 09:06:32;;;;;;;6.07;2.03;;;;;;;;;;5053283;28;20043;-66
2022/09/08 09:09:25;;;;;;;5.85;2.63;;;;;;;;;;5056473;28;20549;-66
2022/09/08 09:11:59;;;;;;;5.07;2.63;;;;;;;;;;5055046;28;20044;-67
2022/09/08 09:14:35;;;;;;;8.30;3.08;;;;;;;;;;5053715;28;20040;-67
2022/09/08 09:17:23;;;;;;;6.80;2.50;;;;;;;;;;5051670;28;20388;-67
2022/09/08 09:20:03;;;;;;;5.82;3.05;;;;;;;;;;5059732;28;20425;-66
2022/09/08 09:22:32;;;;;;;7.97;3.47;;;;;;;;;;5058071;28;20059;-66
2022/09/08 09:25:13;;;;;;;6.25;3.13;;;;;;;;;;5057175;28;20047;-66
2022/09/08 09:27:42;;;;;;;5.47;3.42;;;;;;;;;;5043594;28;20053;-66
2022/09/08 09:30:09;;;;;;;8.93;3.10;;;;;;;;;;5060127;28;20102;-66
2022/09/08 09:32:43;;;;;;;4.95;2.75;;;;;;;;;;5060088;28;20048;-64
2022/09/08 09:35:15;;;;;;;3.85;2.63;;;;;;;;;;5048312;28;20064;-64
2022/09/08 09:38:00;;;;;;;6.20;3.00;;;;;;;;;;5058711;28;20056;-64
2022/09/08 09:40:35;;;;;;;5.63;2.80;;;;;;;;;;5063740;28;20550;-65
2022/09/08 09:43:02;;;;;;;5.28;2.80;;;;;;;;;;5057872;28;20051;-67
2022/09/08 09:45:47;;;;;;;7.85;2.85;;;;;;;;;;5063992;28;20062;-66
2022/09/08 09:48:17;;;;;;;3.95;2.20;;;;;;;;;;5064022;28;20246;-65
2022/09/08 09:50:44;;;;;;;4.35;2.55;;;;;;;;;;5065277;28;20041;-66
2022/09/08 09:53:13;;;;;;;5.70;2.92;;;;;;;;;;5058190;28;20057;-65
2022/09/08 09:55:49;;;;;;;6.88;2.95;;;;;;;;;;5058713;28;20041;-66
2022/09/08 09:58:15;;;;;;;13.25;2.95;;;;;;;;;;5057360;28;20048;-66
2022/09/08 10:00:41;;;;;;;6.65;3.00;;;;;;;;;;5066707;28;20057;-67
2022/09/08 10:03:17;;;;;;;4.07;2.88;;;;;;;;;;5062903;28;20064;-67
2022/09/08 10:05:44;;;;;;;5.47;2.97;;;;;;;;;;5067671;28;20511;-67
2022/09/08 10:08:20;;;;;;;7.13;2.83;;;;;;;;;;5063472;28;20037;-66
2022/09/08 10:10:49;;;;;;;6.25;2.88;;;;;;;;;;5057273;28;20048;-67
2022/09/08 10:13:37;;;;;;;4.80;3.10;;;;;;;;;;5064414;28;20500;-67
2022/09/08 10:16:22;;;;;;;7.38;2.80;;;;;;;;;;5054274;28;20329;-67
2022/09/08 10:18:58;;;;;;;7.47;2.92;;;;;;;;;;5053930;28;20041;-67
2022/09/08 10:21:35;;;;;;;5.13;2.75;;;;;;;;;;5055385;28;20042;-67
2022/09/08 10:24:07;;;;;;;5.68;3.40;;;;;;;;;;5058461;28;20120;-67
2022/09/08 10:26:34;;;;;;;7.50;3.30;;;;;;;;;;5059514;28;20112;-67
2022/09/08 10:29:09;;;;;;;5.57;3.55;;;;;;;;;;5058547;28;20117;-67
2022/09/08 10:31:35;;;;;;;4.60;3.25;;;;;;;;;;5065127;28;20041;-66
2022/09/08 10:34:01;;;;;;;6.60;4.05;;;;;;;;;;5058170;28;20139;-67
2022/09/08 10:36:39;;;;;;;6.65;4.40;;;;;;;;;;5059980;28;20048;-67
2022/09/08 10:39:19;;;;;;;7.68;4.80;;;;;;;;;;5065610;28;20439;-67
2022/09/08 10:41:59;;;;;;;7.72;5.40;;;;;;;;;;5059841;28;20103;-67
2022/09/08 10:44:42;;;;;;;9.45;6.65;;;;;;;;;;5055970;28;20543;-64
2022/09/08 10:47:37;;;;;;;9.75;6.60;;;;;;;;;;5034195;28;20068;-67
2022/09/08 10:50:12;;;;;;;13.48;7.45;;;;;;;;;;5037581;28;20076;-68
2022/09/08 10:52:38;;;;;;;10.05;6.78;;;;;;;;;;5062842;28;20483;-67
2022/09/08 10:55:10;;;;;;;11.23;6.10;;;;;;;;;;5041116;28;20064;-66
2022/09/08 10:57:46;;;;;;;9.35;5.65;;;;;;;;;;5038439;28;20453;-67
2022/09/08 11:00:41;;;;;;;11.43;4.60;;;;;;;;;;5046737;28;20053;-67
2022/09/08 11:03:30;;;;;;;11.95;4.93;;;;;;;;;;5075315;28;20097;-67
2022/09/08 11:06:06;;;;;;;8.88;4.40;;;;;;;;;;5042653;28;20037;-67
2022/09/08 11:08:43;;;;;;;6.18;3.40;;;;;;;;;;5042584;28;20507;-67
2022/09/08 11:11:20;;;;;;;6.32;3.40;;;;;;;;;;5044786;28;20099;-68
2022/09/08 11:13:59;;;;;;;5.68;2.60;;;;;;;;;;5037989;28;20456;-67
2022/09/08 11:16:41;;;;;;;5.18;2.75;;;;;;;;;;5050186;28;20067;-67
2022/09/08 11:19:22;;;;;;;7.28;2.50;;;;;;;;;;5050972;28;20060;-67
2022/09/08 11:22:06;;;;;;;5.60;2.78;;;;;;;;;;5048417;28;20044;-67
2022/09/08 11:24:32;;;;;;;;;;;;;;;;;;5051520;28;20048;-67
2022/09/08 11:27:24;;;;;;;4.97;2.90;;;;;;;;;;5051171;28;19935;-67
2022/09/08 11:30:05;;;;;;;8.60;3.00;;;;;;;;;;5050860;28;20062;-67
2022/09/08 11:32:35;;;;;;;5.07;3.22;;;;;;;;;;5033428;28;20049;-67
2022/09/08 11:35:08;;;;;;;5.70;3.08;;;;;;;;;;5040992;28;20151;-67
2022/09/08 11:37:50;;;;;;;8.55;3.20;;;;;;;;;;5051471;28;20139;-67
2022/09/08 11:40:27;;;;;;;7.03;2.90;;;;;;;;;;5046714;28;20067;-67
2022/09/08 11:43:07;;;;;;;8.70;3.80;;;;;;;;;;5047932;28;20048;-67
2022/09/08 11:45:46;;;;;;;7.78;4.40;;;;;;;;;;5035737;28;20061;-68
2022/09/08 11:48:24;;;;;;;8.43;3.95;;;;;;;;;;5052615;28;20051;-68
2022/09/08 11:51:01;;;;;;;6.95;3.88;;;;;;;;;;5048428;28;22013;-68
2022/09/08 11:53:40;;;;;;;7.00;3.30;;;;;;;;;;5028581;28;20153;-68
2022/09/08 11:56:14;;;;;;;8.57;3.38;;;;;;;;;;5037743;28;20045;-68
2022/09/08 11:58:51;;;;;;;6.70;3.10;;;;;;;;;;5036492;28;20132;-68
2022/09/08 12:01:25;;;;;;;8.05;2.60;;;;;;;;;;5027151;28;20056;-67
2022/09/08 12:03:51;;;;;;;5.65;2.58;;;;;;;;;;5045536;28;20045;-68
2022/09/08 12:06:34;;;;;;;5.00;2.35;;;;;;;;;;5045540;28;20045;-69
2022/09/08 12:09:06;;;;;;;6.20;2.75;;;;;;;;;;5044932;28;20170;-68
2022/09/08 12:11:54;;;;;;;7.47;2.88;;;;;;;;;;5046712;28;20052;-68
2022/09/08 12:14:23;;;;;;;6.80;2.80;;;;;;;;;;5047882;28;20453;-68
2022/09/08 12:17:01;;;;;;;6.75;3.38;;;;;;;;;;5046938;28;20497;-67
2022/09/08 12:19:32;;;;;;;7.32;3.47;;;;;;;;;;5040938;28;20102;-68
2022/09/08 12:22:08;;;;;;;5.07;3.60;;;;;;;;;;5038691;28;20049;-68
2022/09/08 12:24:35;;;;;;;8.15;4.60;;;;;;;;;;5041878;28;20049;-68
2022/09/08 12:27:10;;;;;;;9.63;4.68;;;;;;;;;;5037488;28;20068;-68
2022/09/08 12:29:51;;;;;;;8.10;4.30;;;;;;;;;;5038887;28;20060;-68
2022/09/08 12:32:17;;;;;;;9.68;6.03;;;;;;;;;;5035637;28;21734;-68
2022/09/08 12:34:51;;;;;;;11.05;5.88;;;;;;;;;;5041563;28;20485;-68
2022/09/08 12:37:18;;;;;;;11.25;5.90;;;;;;;;;;5048618;28;20037;-69
2022/09/08 12:39:56;;;;;;;10.38;6.03;;;;;;;;;;5053650;28;20048;-68
2022/09/08 12:42:34;;;;;;;8.65;6.38;;;;;;;;;;5045955;28;20060;-68
2022/09/08 12:45:01;;;;;;;9.52;5.85;;;;;;;;;;5037305;28;20045;-68
2022/09/08 12:47:27;;;;;;;12.70;7.10;;;;;;;;;;5041976;28;20036;-68
2022/09/08 12:49:53;;;;;;;10.00;7.20;;;;;;;;;;5039036;28;20052;-68
2022/09/08 12:52:24;;;;;;;12.52;7.78;;;;;;;;;;5042972;28;20381;-67
2022/09/08 12:54:58;;;;;;;14.60;7.45;;;;;;;;;;5039938;28;20053;-69
2022/09/08 12:57:43;;;;;;;12.80;7.93;;;;;;;;;;5037037;28;20041;-68
2022/09/08 13:00:11;;;;;;;14.13;9.57;;;;;;;;;;5040306;28;20385;-68
2022/09/08 13:02:37;;;;;;;12.30;9.60;;;;;;;;;;5037040;28;20047;-68
2022/09/08 13:05:06;;;;;;;13.55;10.27;;;;;;;;;;5030141;28;20160;-67
2022/09/08 13:07:42;;;;;;;14.32;8.70;;;;;;;;;;5039068;28;20049;-67
2022/09/08 13:10:11;;;;;;;14.20;8.95;;;;;;;;;;5039155;28;20073;-68
2022/09/08 13:12:46;;;;;;;13.55;8.70;;;;;;;;;;5038412;28;20111;-68
2022/09/08 13:15:18;;;;;;;15.30;10.13;;;;;;;;;;5043694;28;20060;-67
2022/09/08 13:17:54;;;;;;;15.77;10.32;;;;;;;;;;5040672;28;20696;-67
2022/09/08 13:20:22;;;;;;;12.00;10.05;;;;;;;;;;5037820;28;20069;-68
2022/09/08 13:23:05;;;;;;;18.90;10.45;;;;;;;;;;5037345;28;20181;-68
2022/09/08 13:25:31;;;;;;;;;;;;;;;;;;5026225;28;20152;-68
2022/09/08 13:28:16;;;;;;;14.93;9.75;;;;;;;;;;5042025;28;20367;-68
2022/09/08 13:30:42;;;;;;;13.95;10.77;;;;;;;;;;5040157;28;20446;-68
2022/09/08 13:33:17;;;;;;;16.88;11.18;;;;;;;;;;5035791;28;20085;-68
2022/09/08 13:36:03;;;;;;;14.98;11.00;;;;;;;;;;5035815;28;20037;-68
2022/09/08 13:38:40;;;;;;;15.75;12.20;;;;;;;;;;5049633;28;20107;-68
2022/09/08 13:41:06;;;;;;;15.45;12.02;;;;;;;;;;5034785;28;20135;-68
2022/09/08 13:43:54;;;;;;;21.08;13.00;;;;;;;;;;5032945;28;20073;-68
2022/09/08 13:46:31;;;;;;;18.58;12.32;;;;;;;;;;5057783;28;20124;-69
2022/09/08 13:48:58;;;;;;;16.50;12.25;;;;;;;;;;5036309;28;20047;-69
2022/09/08 13:51:44;;;;;;;13.43;12.02;;;;;;;;;;5052408;28;20043;-69
2022/09/08 13:54:17;;;;;;;15.07;11.95;;;;;;;;;;5049859;28;20057;-69
2022/09/08 13:56:59;;;;;;;18.60;13.07;;;;;;;;;;5059505;28;20062;-69
2022/09/08 13:59:35;;;;;;;18.73;13.48;;;;;;;;;;5057479;28;20148;-69
2022/09/08 14:02:16;;;;;;;16.67;14.05;;;;;;;;;;5058375;28;20074;-67
2022/09/08 14:04:46;;;;;;;14.35;12.63;;;;;;;;;;5041506;28;20428;-69
2022/09/08 14:07:16;;;;;;;17.25;13.73;;;;;;;;;;5063430;28;20041;-69
2022/09/08 14:10:02;;;;;;;17.08;13.80;;;;;;;;;;5059609;28;20143;-69
2022/09/08 14:12:28;;;;;;;16.20;12.68;;;;;;;;;;5062665;28;20546;-68
2022/09/08 14:14:55;;;;;;;19.02;14.13;;;;;;;;;;5056901;28;20484;-70
2022/09/08 14:17:22;;;;;;;21.45;16.60;;;;;;;;;;5066734;28;20041;-66
2022/09/08 14:19:54;;;;;;;40.15;19.08;;;;;;;;;;5045498;28;20049;-66
2022/09/08 14:22:26;;;;;;;30.40;15.63;;;;;;;;;;5045247;28;20045;-66
2022/09/08 14:25:06;;;;;;;25.00;12.07;;;;;;;;;;5043682;28;20127;-66
2022/09/08 14:27:40;;;;;;;19.88;9.23;;;;;;;;;;5044202;28;20075;-67
2022/09/08 14:30:07;;;;;;;;;;;;;;;;;;5044102;28;20127;-66
2022/09/08 14:32:34;;;;;;;11.65;5.78;;;;;;;;;;5041088;28;19925;-66
2022/09/08 14:35:00;;;;;;;12.75;6.57;;;;;;;;;;5053137;28;20045;-66
2022/09/08 14:37:28;;;;;;;12.80;4.97;;;;;;;;;;5045454;28;20052;-66
2022/09/08 14:40:01;;;;;;;11.18;5.88;;;;;;;;;;5043465;28;20550;-67
2022/09/08 14:42:45;;;;;;;11.88;6.55;;;;;;;;;;5044712;28;20059;-66
2022/09/08 14:45:17;;;;;;;9.68;5.82;;;;;;;;;;5038338;28;20048;-66
2022/09/08 14:48:03;;;;;;;9.10;5.60;;;;;;;;;;5039999;28;20044;-66
2022/09/08 14:50:35;;;;;;;13.20;5.72;;;;;;;;;;5024466;28;20080;-66
2022/09/08 14:53:07;;;;;;;9.68;6.45;;;;;;;;;;5041595;28;20049;-67
2022/09/08 14:55:37;;;;;;;13.25;6.25;;;;;;;;;;5042232;28;20366;-68